createdAt,value
2018-07-10T00:00:53.439Z,5.23
2018-07-10T00:06:07.527Z,2.20
2018-07-10T00:11:32.394Z,2.20
2018-07-10T00:16:35.073Z,2.40
2018-07-10T00:21:37.702Z,2.40
2018-07-10T00:26:40.436Z,2.13
2018-07-10T00:31:43.061Z,3.13
2018-07-10T00:36:45.731Z,3.13
2018-07-10T00:41:49.202Z,2.10
2018-07-10T00:46:51.941Z,2.47
2018-07-10T00:51:54.722Z,2.73
2018-07-10T00:56:57.479Z,2.40
2018-07-10T01:02:00.322Z,2.50
2018-07-10T01:07:03.082Z,3.47
2018-07-10T01:12:05.788Z,3.73
2018-07-10T01:17:08.526Z,3.70
2018-07-10T01:22:11.406Z,2.87
2018-07-10T01:27:14.118Z,2.50
2018-07-10T01:32:16.998Z,4.70
2018-07-10T01:37:19.742Z,4.50
2018-07-10T01:42:22.414Z,4.00
2018-07-10T01:47:25.119Z,2.93
2018-07-10T01:52:28.782Z,3.87
2018-07-10T01:57:32.030Z,2.50
2018-07-10T02:02:34.709Z,5.07
2018-07-10T02:07:37.305Z,3.77
2018-07-10T02:12:40.042Z,2.77
2018-07-10T02:17:42.759Z,3.53
2018-07-10T02:22:46.142Z,3.87
2018-07-10T02:27:48.922Z,3.50
2018-07-10T02:32:51.619Z,4.03
2018-07-10T02:37:54.218Z,3.50
2018-07-10T02:42:56.940Z,4.13
2018-07-10T02:47:59.933Z,3.43
2018-07-10T02:53:02.933Z,4.27
2018-07-10T02:58:05.827Z,3.07
2018-07-10T03:03:09.531Z,3.33
2018-07-10T03:08:12.248Z,5.10
2018-07-10T03:13:16.086Z,5.90
2018-07-10T03:18:18.804Z,7.73
2018-07-10T03:23:21.557Z,4.83
2018-07-10T03:28:24.373Z,5.27
2018-07-10T03:33:27.188Z,5.67
2018-07-10T03:38:29.883Z,4.70
2018-07-10T03:43:32.599Z,4.33
2018-07-10T03:48:35.370Z,7.17
2018-07-10T03:53:38.238Z,4.00
2018-07-10T03:58:40.994Z,5.17
2018-07-10T04:03:44.016Z,13.37
2018-07-10T04:08:46.734Z,4.63
2018-07-10T04:13:49.604Z,2.97
2018-07-10T04:18:52.331Z,6.73
2018-07-10T04:24:00.245Z,5.43
2018-07-10T04:29:15.582Z,4.57
2018-07-10T04:34:18.442Z,4.70
2018-07-10T04:39:21.150Z,6.80
2018-07-10T04:44:30.211Z,6.17
2018-07-10T04:49:42.379Z,7.63
2018-07-10T04:55:05.734Z,6.87
2018-07-10T05:00:08.456Z,7.33
2018-07-10T05:05:11.302Z,4.30
2018-07-10T05:10:14.207Z,6.37
2018-07-10T05:15:16.932Z,7.23
2018-07-10T05:20:20.732Z,4.70
2018-07-10T05:25:23.501Z,4.90
2018-07-10T05:30:26.250Z,3.37
2018-07-10T05:35:28.982Z,5.30
2018-07-10T05:40:31.699Z,8.27
2018-07-10T05:45:34.432Z,4.33
2018-07-10T05:50:38.231Z,3.57
2018-07-10T05:55:44.418Z,4.83
2018-07-10T06:00:47.016Z,4.33
2018-07-10T06:05:49.821Z,3.10
2018-07-10T06:10:52.538Z,6.80
2018-07-10T06:15:55.903Z,2.93
2018-07-10T06:20:58.583Z,2.60
2018-07-10T06:26:02.131Z,2.50
2018-07-10T06:31:10.767Z,2.30
2018-07-10T06:36:22.974Z,4.90
2018-07-10T06:41:26.112Z,3.23
2018-07-10T06:46:38.199Z,6.67
2018-07-10T06:51:40.939Z,4.93
2018-07-10T06:56:45.584Z,6.47
2018-07-10T07:01:48.351Z,2.73
2018-07-10T07:06:51.558Z,3.83
2018-07-10T07:11:54.240Z,3.60
2018-07-10T07:22:03.274Z,4.90
2018-07-10T07:27:05.988Z,3.40
2018-07-10T07:32:08.686Z,5.00
2018-07-10T07:37:11.379Z,3.80
2018-07-10T07:42:15.455Z,5.00
2018-07-10T07:47:20.798Z,6.13
2018-07-10T07:52:26.595Z,5.93
2018-07-10T07:57:29.306Z,7.17
2018-07-10T08:02:32.106Z,5.10
2018-07-10T08:07:34.818Z,4.73
2018-07-10T08:12:37.550Z,7.23
2018-07-10T08:17:40.386Z,5.80
2018-07-10T08:22:43.174Z,8.40
2018-07-10T08:27:45.915Z,9.03
2018-07-10T08:32:49.390Z,8.43
2018-07-10T08:37:52.019Z,9.43
2018-07-10T08:42:54.707Z,8.00
2018-07-10T08:47:58.220Z,8.47
2018-07-10T08:53:00.939Z,6.77
2018-07-10T08:58:03.691Z,8.57
2018-07-10T09:03:06.448Z,8.03
2018-07-10T09:08:09.279Z,12.33
2018-07-10T09:13:12.141Z,6.33
2018-07-10T09:18:15.003Z,7.40
2018-07-10T09:23:18.908Z,6.37
2018-07-10T09:28:21.693Z,8.90
2018-07-10T09:33:24.464Z,7.70
2018-07-10T09:38:27.188Z,13.13
2018-07-10T09:43:29.935Z,7.83
2018-07-10T09:48:32.793Z,8.07
2018-07-10T09:53:35.530Z,8.10
2018-07-10T09:58:38.275Z,8.03
2018-07-10T10:03:41.019Z,8.03
2018-07-10T10:08:43.712Z,7.77
2018-07-10T10:13:46.322Z,9.93
2018-07-10T10:18:50.753Z,6.90
2018-07-10T10:23:54.044Z,8.03
2018-07-10T10:28:59.206Z,5.73
2018-07-10T10:34:01.917Z,5.70
2018-07-10T10:39:04.739Z,6.67
2018-07-10T10:44:07.508Z,9.63
2018-07-10T10:49:10.304Z,11.53
2018-07-10T10:54:13.095Z,9.70
2018-07-10T10:59:16.367Z,10.83
2018-07-10T11:04:19.292Z,12.57
2018-07-10T11:09:22.047Z,12.93
2018-07-10T11:14:24.783Z,12.07
2018-07-10T11:19:32.918Z,14.77
2018-07-10T11:24:50.999Z,13.73
2018-07-10T11:29:53.779Z,12.87
2018-07-10T11:34:56.630Z,14.33
2018-07-10T11:39:59.383Z,13.60
2018-07-10T11:45:02.124Z,13.07
2018-07-10T11:50:04.997Z,14.43
2018-07-10T11:55:08.008Z,13.47
2018-07-10T12:00:10.877Z,19.37
2018-07-10T12:05:15.909Z,15.17
2018-07-10T12:10:22.508Z,15.33
2018-07-10T12:15:25.182Z,26.83
2018-07-10T12:20:29.363Z,16.37
2018-07-10T12:25:36.735Z,15.40
2018-07-10T12:30:39.544Z,17.57
2018-07-10T12:35:42.277Z,17.10
2018-07-10T12:40:45.176Z,14.57
2018-07-10T12:45:47.912Z,12.00
2018-07-10T12:50:51.159Z,14.67
2018-07-10T12:55:53.911Z,10.23
2018-07-10T13:00:56.680Z,10.30
2018-07-10T13:05:59.433Z,8.20
2018-07-10T13:11:02.160Z,10.20
2018-07-10T13:16:05.471Z,10.83
2018-07-10T13:21:08.200Z,8.57
2018-07-10T13:26:10.947Z,8.07
2018-07-10T13:31:13.671Z,7.63
2018-07-10T13:36:16.275Z,7.73
2018-07-10T13:41:19.076Z,7.73
2018-07-10T13:46:21.819Z,8.53
2018-07-10T13:51:24.528Z,7.67
2018-07-10T13:56:27.387Z,7.60
2018-07-10T14:01:34.531Z,7.67
2018-07-10T14:06:37.493Z,9.53
2018-07-10T14:11:40.216Z,10.77
2018-07-10T14:16:42.957Z,7.17
2018-07-10T14:21:45.874Z,8.53
2018-07-10T14:26:48.819Z,8.10
2018-07-10T14:31:51.493Z,8.90
2018-07-10T14:36:54.215Z,8.97
2018-07-10T14:41:56.962Z,9.43
2018-07-10T14:46:59.875Z,7.60
2018-07-10T14:52:02.653Z,9.83
2018-07-10T14:57:05.399Z,7.50
2018-07-10T15:02:10.083Z,8.57
2018-07-10T15:07:13.123Z,6.77
2018-07-10T15:12:18.295Z,6.53
2018-07-10T15:17:26.862Z,8.40
2018-07-10T15:22:29.607Z,7.57
2018-07-10T15:27:32.412Z,8.87
2018-07-10T15:32:35.135Z,8.53
2018-07-10T15:37:38.476Z,8.13
2018-07-10T15:42:41.295Z,7.27
2018-07-10T15:47:44.079Z,8.80
2018-07-10T15:52:46.848Z,9.33
2018-07-10T15:57:49.695Z,6.40
2018-07-10T16:02:52.423Z,4.80
2018-07-10T16:08:10.483Z,5.77
2018-07-10T16:13:13.662Z,4.63
2018-07-10T16:18:16.406Z,6.60
2018-07-10T16:23:19.352Z,3.77
2018-07-10T16:28:25.220Z,4.30
2018-07-10T16:33:30.854Z,5.57
2018-07-10T16:38:34.919Z,2.40
2018-07-10T16:43:37.827Z,3.67
2018-07-10T16:48:47.618Z,4.17
2018-07-10T16:53:55.026Z,4.80
2018-07-10T16:58:58.012Z,4.83
2018-07-10T17:04:02.678Z,3.20
2018-07-10T17:09:05.379Z,5.67
2018-07-10T17:14:08.099Z,3.20
2018-07-10T17:19:10.859Z,5.57
2018-07-10T17:24:13.570Z,2.60
2018-07-10T17:29:16.359Z,3.43
2018-07-10T17:34:19.166Z,6.27
2018-07-10T17:39:21.910Z,3.43
2018-07-10T17:44:24.655Z,4.07
2018-07-10T17:49:27.551Z,4.87
2018-07-10T17:54:30.333Z,5.77
2018-07-10T17:59:33.304Z,2.67
2018-07-10T18:04:36.345Z,3.73
2018-07-10T18:09:39.167Z,3.50
2018-07-10T18:14:42.174Z,4.67
2018-07-10T18:19:45.076Z,2.63
2018-07-10T18:24:47.782Z,5.10
2018-07-10T18:29:50.454Z,4.13
2018-07-10T18:34:53.235Z,3.63
2018-07-10T18:39:55.940Z,2.80
2018-07-10T18:45:00.214Z,3.43
2018-07-10T18:50:03.761Z,3.13
2018-07-10T18:55:06.584Z,4.60
2018-07-10T19:00:09.432Z,3.63
2018-07-10T19:05:12.346Z,2.80
2018-07-10T19:10:15.283Z,5.30
2018-07-10T19:15:18.466Z,6.37
2018-07-10T19:20:21.384Z,5.23
2018-07-10T19:25:24.206Z,4.07
2018-07-10T19:30:36.166Z,3.37
2018-07-10T19:35:38.991Z,4.53
2018-07-10T19:40:41.894Z,5.37
2018-07-10T19:45:44.698Z,4.63
2018-07-10T19:50:47.484Z,8.90
2018-07-10T19:55:50.452Z,4.53
2018-07-10T20:00:58.063Z,4.25
2018-07-10T20:06:07.815Z,5.17
2018-07-10T20:11:11.162Z,5.23
2018-07-10T20:16:52.776Z,4.90
2018-07-10T20:22:02.950Z,6.83
2018-07-10T20:27:15.601Z,6.20
2018-07-10T20:32:22.958Z,6.30
2018-07-10T20:37:26.562Z,4.23
2018-07-10T20:42:33.963Z,4.80
2018-07-10T20:47:54.487Z,9.47
2018-07-10T20:54:05.378Z,6.20
2018-07-10T20:59:18.543Z,6.03
2018-07-10T21:04:31.667Z,5.53
2018-07-10T21:10:15.387Z,5.43
2018-07-10T21:15:34.139Z,4.67
2018-07-10T21:20:44.999Z,6.53
2018-07-10T21:25:53.386Z,7.73
2018-07-10T21:30:59.295Z,6.30
2018-07-10T21:36:06.392Z,5.20
2018-07-10T21:41:48.542Z,6.20
2018-07-10T21:46:56.827Z,5.90
2018-07-10T21:51:59.550Z,6.77
2018-07-10T21:57:02.424Z,7.93
2018-07-10T22:02:07.497Z,6.07
2018-07-10T22:07:11.830Z,5.77
2018-07-10T22:12:17.303Z,4.83
2018-07-10T22:17:22.344Z,5.03
2018-07-10T22:22:26.346Z,5.47
2018-07-10T22:27:28.996Z,7.53
2018-07-10T22:32:54.646Z,6.00
2018-07-10T22:37:57.400Z,7.73
2018-07-10T22:43:00.105Z,6.97
2018-07-10T22:48:02.836Z,7.07
2018-07-10T22:53:05.572Z,5.00
2018-07-10T22:58:08.333Z,9.83
2018-07-10T23:03:21.713Z,5.00
2018-07-10T23:08:29.237Z,8.20
2018-07-10T23:13:33.924Z,3.40
2018-07-10T23:18:36.599Z,4.77
2018-07-10T23:23:39.226Z,5.47
2018-07-10T23:28:42.179Z,4.33
2018-07-10T23:33:47.919Z,4.77
2018-07-10T23:39:04.022Z,3.43
2018-07-10T23:44:08.482Z,4.37
2018-07-10T23:49:14.683Z,4.63
2018-07-10T23:54:17.286Z,4.43
2018-07-10T23:59:20.165Z,2.53
